createdAt,value
2022-08-24T00:02:01.376Z,100940.91
2022-08-24T00:04:31.976Z,100936.34
2022-08-24T00:07:02.231Z,100933.97
2022-08-24T00:09:31.715Z,100937.47
2022-08-24T00:12:00.388Z,100937.53
2022-08-24T00:14:27.962Z,100944.41
2022-08-24T00:16:56.061Z,100933.56
2022-08-24T00:19:25.122Z,100941.44
2022-08-24T00:21:52.782Z,100939.66
2022-08-24T00:24:21.622Z,100936.25
2022-08-24T00:26:49.792Z,100933.75
2022-08-24T00:29:19.068Z,100931.25
2022-08-24T00:31:47.332Z,100933.28
2022-08-24T00:34:17.806Z,100930.50
2022-08-24T00:36:46.115Z,100927.09
2022-08-24T00:39:14.391Z,100927.91
2022-08-24T00:41:44.914Z,100936.47
2022-08-24T00:44:14.415Z,100933.38
2022-08-24T00:46:53.837Z,100938.28
2022-08-24T00:49:30.106Z,100929.88
2022-08-24T00:52:15.401Z,100931.59
2022-08-24T00:54:49.013Z,100931.13
2022-08-24T00:57:20.348Z,100925.25
2022-08-24T00:59:55.774Z,100927.81
2022-08-24T01:02:29.889Z,100919.75
2022-08-24T01:05:04.384Z,100927.94
2022-08-24T01:07:33.723Z,100927.63
2022-08-24T01:10:06.062Z,100920.81
2022-08-24T01:12:37.052Z,100919.28
2022-08-24T01:15:07.942Z,100921.69
2022-08-24T01:17:54.872Z,100917.34
2022-08-24T01:20:26.481Z,100921.78
2022-08-24T01:23:19.714Z,100925.56
2022-08-24T01:25:47.287Z,100922.56
2022-08-24T01:28:27.183Z,100920.88
2022-08-24T01:30:57.094Z,100914.22
2022-08-24T01:33:28.282Z,100918.03
2022-08-24T01:36:28.234Z,100919.22
2022-08-24T01:39:00.723Z,100913.47
2022-08-24T01:41:29.455Z,100911.78
2022-08-24T01:43:59.511Z,100911.88
2022-08-24T01:46:29.559Z,100909.28
2022-08-24T01:48:58.652Z,100913.72
2022-08-24T01:51:30.737Z,100914.91
2022-08-24T01:54:03.527Z,100912.63
2022-08-24T01:56:33.406Z,100912.63
2022-08-24T01:59:02.117Z,100914.78
2022-08-24T02:01:34.806Z,100910.44
2022-08-24T02:04:05.657Z,100918.13
2022-08-24T02:06:37.975Z,100916.66
2022-08-24T02:09:08.341Z,100913.88
2022-08-24T02:11:37.940Z,100912.59
2022-08-24T02:14:06.643Z,100911.97
2022-08-24T02:16:34.507Z,100914.16
2022-08-24T02:19:02.564Z,100920.63
2022-08-24T02:21:30.576Z,100917.56
2022-08-24T02:23:58.136Z,100916.19
2022-08-24T02:26:28.422Z,100917.84
2022-08-24T02:29:03.557Z,100927.47
2022-08-24T02:31:33.294Z,100927.59
2022-08-24T02:34:01.741Z,100929.50
2022-08-24T02:36:31.254Z,100939.03
2022-08-24T02:39:00.584Z,100932.31
2022-08-24T02:41:28.310Z,100938.34
2022-08-24T02:43:57.407Z,100936.41
2022-08-24T02:46:28.544Z,100929.03
2022-08-24T02:49:11.155Z,100932.81
2022-08-24T02:51:45.229Z,100930.09
2022-08-24T02:54:18.422Z,100932.19
2022-08-24T02:56:48.608Z,100919.53
2022-08-24T02:59:17.877Z,100927.38
2022-08-24T03:01:47.202Z,100934.84
2022-08-24T03:04:18.870Z,100928.38
2022-08-24T03:06:47.277Z,100922.66
2022-08-24T03:09:14.832Z,100918.78
2022-08-24T03:11:45.467Z,100919.41
2022-08-24T03:14:14.606Z,100927.97
2022-08-24T03:16:42.465Z,100925.34
2022-08-24T03:19:10.465Z,100923.00
2022-08-24T03:21:38.946Z,100920.00
2022-08-24T03:24:06.670Z,100920.41
2022-08-24T03:26:35.054Z,100918.22
2022-08-24T03:29:03.108Z,100917.66
2022-08-24T03:31:33.896Z,100923.34
2022-08-24T03:34:02.873Z,100918.31
2022-08-24T03:36:30.621Z,100922.16
2022-08-24T03:38:59.180Z,100919.94
2022-08-24T03:41:27.417Z,100921.97
2022-08-24T03:43:56.881Z,100921.66
2022-08-24T03:46:28.894Z,100918.09
2022-08-24T03:48:58.366Z,100920.13
2022-08-24T03:51:28.621Z,100920.63
2022-08-24T03:53:58.670Z,100914.97
2022-08-24T03:56:29.292Z,100924.00
2022-08-24T03:58:57.842Z,100919.00
2022-08-24T04:01:28.783Z,100917.59
2022-08-24T04:03:56.956Z,100920.78
2022-08-24T04:06:30.347Z,100915.22
2022-08-24T04:08:59.081Z,100924.50
2022-08-24T04:11:28.846Z,100925.00
2022-08-24T04:13:58.651Z,100922.16
2022-08-24T04:16:28.343Z,100933.16
2022-08-24T04:19:20.428Z,100924.97
2022-08-24T04:21:48.896Z,100934.94
2022-08-24T04:24:20.684Z,100931.06
2022-08-24T04:26:48.383Z,100932.72
2022-08-24T04:29:18.721Z,100935.91
2022-08-24T04:31:51.826Z,100940.88
2022-08-24T04:34:19.926Z,100935.97
2022-08-24T04:36:48.817Z,100945.66
2022-08-24T04:39:17.375Z,100938.78
2022-08-24T04:41:53.500Z,100945.13
2022-08-24T04:44:22.991Z,100955.00
2022-08-24T04:46:50.852Z,100955.66
2022-08-24T04:49:19.318Z,100956.38
2022-08-24T04:51:46.812Z,100961.47
2022-08-24T04:54:16.787Z,100967.19
2022-08-24T04:56:49.723Z,100967.72
2022-08-24T04:59:17.258Z,100969.53
2022-08-24T05:01:45.377Z,100977.84
2022-08-24T05:04:14.514Z,100975.97
2022-08-24T05:06:42.910Z,100978.88
2022-08-24T05:09:10.661Z,100980.53
2022-08-24T05:11:42.373Z,100983.97
2022-08-24T05:14:20.874Z,100985.97
2022-08-24T05:16:52.970Z,100976.16
2022-08-24T05:19:23.647Z,100984.84
2022-08-24T05:21:51.702Z,100981.44
2022-08-24T05:24:19.999Z,100983.72
2022-08-24T05:26:48.080Z,100971.09
2022-08-24T05:29:19.267Z,100983.31
2022-08-24T05:31:50.215Z,100990.19
2022-08-24T05:34:18.704Z,100994.56
2022-08-24T05:36:47.355Z,100985.41
2022-08-24T05:39:39.199Z,100996.63
2022-08-24T05:42:09.608Z,100991.53
2022-08-24T05:44:44.188Z,100994.88
2022-08-24T05:47:12.355Z,100998.38
2022-08-24T05:49:41.661Z,101004.22
2022-08-24T05:52:11.757Z,100998.84
2022-08-24T05:54:40.953Z,100997.00
2022-08-24T05:57:11.504Z,100996.91
2022-08-24T06:00:00.774Z,101001.63
2022-08-24T06:02:29.492Z,101000.13
2022-08-24T06:04:58.539Z,101004.63
2022-08-24T06:07:27.055Z,101010.59
2022-08-24T06:10:09.878Z,101012.88
2022-08-24T06:12:46.794Z,101005.72
2022-08-24T06:15:14.776Z,101000.31
2022-08-24T06:17:42.841Z,100994.47
2022-08-24T06:20:10.877Z,100994.19
2022-08-24T06:22:38.919Z,100994.56
2022-08-24T06:25:25.851Z,100995.94
2022-08-24T06:27:54.101Z,100984.84
2022-08-24T06:30:22.239Z,100994.19
2022-08-24T06:33:05.341Z,100990.81
2022-08-24T06:35:46.849Z,100988.81
2022-08-24T06:38:14.972Z,100991.34
2022-08-24T06:40:46.453Z,100995.34
2022-08-24T06:43:14.967Z,100997.53
2022-08-24T06:45:53.272Z,100997.69
2022-08-24T06:48:24.860Z,100999.75
2022-08-24T06:50:54.477Z,100997.13
2022-08-24T06:53:22.244Z,101005.38
2022-08-24T06:55:58.718Z,101002.31
2022-08-24T06:58:29.056Z,100999.44
2022-08-24T07:00:57.644Z,101005.66
2022-08-24T07:03:25.874Z,100995.19
2022-08-24T07:06:02.678Z,101003.06
2022-08-24T07:08:56.955Z,101001.25
2022-08-24T07:11:25.580Z,101005.47
2022-08-24T07:13:54.602Z,101003.81
2022-08-24T07:16:22.923Z,101010.09
2022-08-24T07:18:54.106Z,101002.22
2022-08-24T07:21:23.502Z,101003.00
2022-08-24T07:23:57.941Z,101004.44
2022-08-24T07:26:28.729Z,101006.38
2022-08-24T07:29:06.883Z,101009.44
2022-08-24T07:31:41.374Z,101002.59
2022-08-24T07:34:15.810Z,101005.13
2022-08-24T07:36:45.426Z,101007.84
2022-08-24T07:39:14.113Z,101001.63
2022-08-24T07:42:10.926Z,101004.53
2022-08-24T07:44:32.771Z,101012.00
2022-08-24T07:47:15.124Z,101016.94
2022-08-24T07:49:49.556Z,101016.97
2022-08-24T07:52:17.293Z,101020.06
2022-08-24T07:54:46.967Z,101017.56
2022-08-24T07:57:15.325Z,101025.69
2022-08-24T07:59:43.273Z,101022.78
2022-08-24T08:02:11.713Z,101015.09
2022-08-24T08:04:42.412Z,101018.00
2022-08-24T08:07:11.752Z,101018.00
2022-08-24T08:09:39.868Z,101021.53
2022-08-24T08:12:10.357Z,101015.94
2022-08-24T08:14:46.070Z,101025.88
2022-08-24T08:17:15.007Z,101019.88
2022-08-24T08:19:43.902Z,101027.53
2022-08-24T08:22:31.999Z,101027.69
2022-08-24T08:25:19.294Z,101026.22
2022-08-24T08:27:47.491Z,101030.81
2022-08-24T08:30:15.920Z,101021.34
2022-08-24T08:32:44.956Z,101029.00
2022-08-24T08:35:14.603Z,101029.16
2022-08-24T08:37:43.440Z,101030.38
2022-08-24T08:40:27.322Z,101029.94
2022-08-24T08:42:58.101Z,101025.00
2022-08-24T08:45:47.567Z,101031.63
2022-08-24T08:49:41.110Z,101025.00
2022-08-24T08:52:58.321Z,101027.09
2022-08-24T08:55:33.828Z,101024.44
2022-08-24T08:58:14.653Z,101028.66
2022-08-24T09:00:56.184Z,101025.66
2022-08-24T09:03:32.805Z,101026.81
2022-08-24T09:06:19.321Z,101020.66
2022-08-24T09:08:59.166Z,101028.28
2022-08-24T09:11:41.701Z,101017.88
2022-08-24T09:14:15.779Z,101014.00
2022-08-24T09:17:13.083Z,101017.41
2022-08-24T09:20:05.917Z,101016.75
2022-08-24T09:22:40.933Z,101021.34
2022-08-24T09:25:26.368Z,101016.13
2022-08-24T09:28:36.001Z,101014.78
2022-08-24T09:31:23.066Z,101013.44
2022-08-24T09:34:09.744Z,101008.34
2022-08-24T09:36:52.566Z,101003.47
2022-08-24T09:39:42.331Z,101001.19
2022-08-24T09:42:25.798Z,101000.13
2022-08-24T09:45:12.189Z,100995.19
2022-08-24T09:48:21.264Z,101003.63
2022-08-24T09:51:20.085Z,101007.09
2022-08-24T09:54:00.321Z,100995.41
2022-08-24T09:57:11.753Z,100988.31
2022-08-24T10:00:07.545Z,100978.69
2022-08-24T10:02:58.790Z,100978.72
2022-08-24T10:05:26.751Z,100970.94
2022-08-24T10:08:14.506Z,100970.06
2022-08-24T10:11:04.304Z,100974.38
2022-08-24T10:13:42.716Z,100966.69
2022-08-24T10:16:35.157Z,100970.78
2022-08-24T10:19:24.984Z,100965.41
2022-08-24T10:21:52.802Z,100971.88
2022-08-24T10:24:48.058Z,100971.06
2022-08-24T10:27:40.428Z,100969.81
2022-08-24T10:30:23.563Z,100964.28
2022-08-24T10:33:14.597Z,100962.66
2022-08-24T10:36:08.290Z,100960.47
2022-08-24T10:39:07.067Z,100955.72
2022-08-24T10:41:53.452Z,100955.88
2022-08-24T10:44:40.837Z,100955.50
2022-08-24T10:47:22.337Z,100948.88
2022-08-24T10:50:22.043Z,100953.44
2022-08-24T10:53:06.464Z,100956.81
2022-08-24T10:55:35.766Z,100956.97
2022-08-24T10:58:25.181Z,100956.91
2022-08-24T11:00:52.985Z,100955.47
2022-08-24T11:03:28.382Z,100957.75
2022-08-24T11:05:57.353Z,100951.06
2022-08-24T11:08:33.790Z,100940.88
2022-08-24T11:11:12.785Z,100940.97
2022-08-24T11:14:00.226Z,100946.53
2022-08-24T11:16:43.194Z,100944.75
2022-08-24T11:19:33.658Z,100945.59
2022-08-24T11:22:06.158Z,100934.44
2022-08-24T11:24:43.272Z,100934.63
2022-08-24T11:27:16.716Z,100947.75
2022-08-24T11:29:50.808Z,100931.34
2022-08-24T11:32:51.295Z,100937.91
2022-08-24T11:35:45.096Z,100934.97
2022-08-24T11:38:22.915Z,100939.91
2022-08-24T11:40:55.993Z,100936.03
2022-08-24T11:43:38.494Z,100938.50
2022-08-24T11:46:23.925Z,100941.97
2022-08-24T11:49:20.780Z,100930.81
2022-08-24T11:51:58.117Z,100927.50
2022-08-24T11:54:31.205Z,100931.22
2022-08-24T11:57:10.771Z,100928.47
2022-08-24T11:59:54.666Z,100936.59
2022-08-24T12:02:45.845Z,100931.44
2022-08-24T12:05:28.682Z,100929.06
2022-08-24T12:08:26.933Z,100924.31
2022-08-24T12:11:10.391Z,100923.31
2022-08-24T12:13:38.404Z,100922.94
2022-08-24T12:16:34.025Z,100920.16
2022-08-24T12:19:16.701Z,100913.28
2022-08-24T12:21:50.155Z,100916.75
2022-08-24T12:24:46.593Z,100923.97
2022-08-24T12:27:22.640Z,100921.56
2022-08-24T12:30:05.564Z,100915.63
2022-08-24T12:32:42.447Z,100914.84
2022-08-24T12:35:18.736Z,100907.16
2022-08-24T12:37:57.975Z,100911.03
2022-08-24T12:40:43.141Z,100908.16
2022-08-24T12:43:27.426Z,100906.94
2022-08-24T12:46:00.100Z,100912.03
2022-08-24T12:48:39.505Z,100913.72
2022-08-24T12:51:16.699Z,100907.31
2022-08-24T12:54:24.917Z,100900.47
2022-08-24T12:56:56.309Z,100893.31
2022-08-24T12:59:52.839Z,100893.97
2022-08-24T13:02:20.694Z,100894.09
2022-08-24T13:04:51.328Z,100895.69
2022-08-24T13:07:18.795Z,100889.09
2022-08-24T13:09:52.398Z,100885.63
2022-08-24T13:12:38.347Z,100891.50
2022-08-24T13:15:24.002Z,100878.91
2022-08-24T13:18:02.612Z,100883.59
2022-08-24T13:20:37.803Z,100877.88
2022-08-24T13:23:12.965Z,100866.25
2022-08-24T13:25:56.040Z,100870.06
2022-08-24T13:28:24.997Z,100867.09
2022-08-24T13:31:10.575Z,100865.97
2022-08-24T13:33:47.280Z,100865.13
2022-08-24T13:36:33.873Z,100877.72
2022-08-24T13:39:07.279Z,100869.34
2022-08-24T13:41:46.162Z,100876.38
2022-08-24T13:44:47.572Z,100869.38
2022-08-24T13:47:22.523Z,100881.09
2022-08-24T13:49:51.877Z,100876.44
2022-08-24T13:52:45.159Z,100872.97
2022-08-24T13:55:32.636Z,100870.94
2022-08-24T13:58:24.628Z,100866.00
2022-08-24T14:01:03.837Z,100859.13
2022-08-24T14:03:45.183Z,100863.19
2022-08-24T14:06:23.320Z,100866.78
2022-08-24T14:09:09.558Z,100869.03
2022-08-24T14:11:44.215Z,100863.44
2022-08-24T14:14:26.585Z,100862.38
2022-08-24T14:17:44.177Z,100862.16
2022-08-24T14:20:41.333Z,100864.09
2022-08-24T14:23:20.957Z,100859.31
2022-08-24T14:25:49.668Z,100857.72
2022-08-24T14:28:40.734Z,100855.28
2022-08-24T14:31:29.522Z,100850.59
2022-08-24T14:34:17.013Z,100852.75
2022-08-24T14:37:18.691Z,100851.63
2022-08-24T14:40:04.480Z,100849.09
2022-08-24T14:42:39.423Z,100860.00
2022-08-24T14:45:18.552Z,100852.84
2022-08-24T14:48:05.042Z,100855.56
2022-08-24T14:50:40.019Z,100849.84
2022-08-24T14:53:27.142Z,100855.97
2022-08-24T14:56:24.988Z,100851.69
2022-08-24T14:59:32.198Z,100852.63
2022-08-24T15:02:29.393Z,100854.53
2022-08-24T15:05:09.141Z,100848.09
2022-08-24T15:07:37.433Z,100855.41
2022-08-24T15:10:14.933Z,100852.81
2022-08-24T15:12:54.192Z,100845.59
2022-08-24T15:15:27.857Z,100854.91
2022-08-24T15:18:06.443Z,100843.19
2022-08-24T15:20:58.536Z,100843.88
2022-08-24T15:27:13.248Z,100849.72
2022-08-24T15:29:55.007Z,100838.88
2022-08-24T15:32:28.281Z,100844.69
2022-08-24T15:34:58.462Z,100842.94
2022-08-24T15:37:26.617Z,100844.97
2022-08-24T15:39:54.163Z,100841.91
2022-08-24T15:42:22.864Z,100845.63
2022-08-24T15:44:51.783Z,100850.59
2022-08-24T15:47:35.881Z,100841.41
2022-08-24T15:50:08.274Z,100840.41
2022-08-24T15:52:51.270Z,100837.69
2022-08-24T15:55:24.977Z,100844.38
2022-08-24T15:57:53.290Z,100838.97
2022-08-24T16:00:44.611Z,100838.31
2022-08-24T16:03:27.133Z,100842.69
2022-08-24T16:06:16.020Z,100842.00
2022-08-24T16:09:05.083Z,100834.91
2022-08-24T16:11:38.728Z,100831.47
2022-08-24T16:14:29.405Z,100834.41
2022-08-24T16:16:59.755Z,100833.59
2022-08-24T16:19:35.687Z,100833.25
2022-08-24T16:22:13.089Z,100837.38
2022-08-24T16:24:43.449Z,100841.59
2022-08-24T16:27:14.805Z,100828.22
2022-08-24T16:29:44.835Z,100839.22
2022-08-24T16:32:32.006Z,100837.72
2022-08-24T16:35:19.583Z,100832.91
2022-08-24T16:37:47.786Z,100833.22
2022-08-24T16:40:15.778Z,100827.53
2022-08-24T16:42:43.546Z,100828.31
2022-08-24T16:45:14.928Z,100836.22
2022-08-24T16:47:42.607Z,100833.50
2022-08-24T16:50:11.274Z,100829.91
2022-08-24T16:52:39.830Z,100835.16
2022-08-24T16:55:08.454Z,100839.00
2022-08-24T16:57:37.530Z,100832.19
2022-08-24T17:00:09.649Z,100839.69
2022-08-24T17:02:37.868Z,100833.94
2022-08-24T17:05:06.741Z,100833.97
2022-08-24T17:07:34.907Z,100842.53
2022-08-24T17:10:04.636Z,100841.47
2022-08-24T17:12:32.416Z,100847.88
2022-08-24T17:15:01.200Z,100845.88
2022-08-24T17:17:29.341Z,100845.19
2022-08-24T17:19:56.993Z,100852.19
2022-08-24T17:22:26.589Z,100848.00
2022-08-24T17:24:55.028Z,100848.56
2022-08-24T17:27:33.168Z,100852.72
2022-08-24T17:30:05.117Z,100857.63
2022-08-24T17:32:33.962Z,100858.69
2022-08-24T17:35:03.699Z,100862.66
2022-08-24T17:37:32.786Z,100863.44
2022-08-24T17:40:00.850Z,100856.50
2022-08-24T17:42:49.658Z,100866.56
2022-08-24T17:45:16.784Z,100861.91
2022-08-24T17:47:45.019Z,100870.81
2022-08-24T17:50:14.851Z,100862.19
2022-08-24T17:52:44.134Z,100865.38
2022-08-24T17:55:14.074Z,100870.97
2022-08-24T17:57:45.707Z,100873.69
2022-08-24T18:00:17.202Z,100868.09
2022-08-24T18:02:45.798Z,100871.97
2022-08-24T18:05:14.947Z,100865.53
2022-08-24T18:07:54.892Z,100870.44
2022-08-24T18:10:27.905Z,100868.59
2022-08-24T18:12:58.146Z,100877.88
2022-08-24T18:15:34.585Z,100873.13
2022-08-24T18:18:08.864Z,100876.06
2022-08-24T18:20:40.334Z,100874.66
2022-08-24T18:23:11.354Z,100885.34
2022-08-24T18:25:51.154Z,100882.50
2022-08-24T18:28:22.184Z,100886.91
2022-08-24T18:30:51.766Z,100885.94
2022-08-24T18:33:19.404Z,100894.50
2022-08-24T18:35:47.868Z,100899.34
2022-08-24T18:38:15.367Z,100894.81
2022-08-24T18:40:52.078Z,100900.91
2022-08-24T18:43:24.071Z,100902.19
2022-08-24T18:45:53.338Z,100902.47
2022-08-24T18:48:22.087Z,100895.13
2022-08-24T18:50:51.163Z,100902.03
2022-08-24T18:53:19.800Z,100901.56
2022-08-24T18:55:48.985Z,100909.06
2022-08-24T18:58:17.053Z,100913.97
2022-08-24T19:00:45.392Z,100916.00
2022-08-24T19:03:17.612Z,100917.59
2022-08-24T19:05:46.465Z,100922.59
2022-08-24T19:08:13.970Z,100930.22
2022-08-24T19:10:41.985Z,100930.72
2022-08-24T19:13:15.849Z,100939.41
2022-08-24T19:15:46.692Z,100938.69
2022-08-24T19:18:16.485Z,100945.41
2022-08-24T19:20:48.483Z,100944.03
2022-08-24T19:23:30.097Z,100953.00
2022-08-24T19:25:58.670Z,100956.53
2022-08-24T19:28:27.110Z,100956.78
2022-08-24T19:31:01.968Z,100959.31
2022-08-24T19:33:35.845Z,100967.38
2022-08-24T19:36:04.633Z,100959.75
2022-08-24T19:38:32.364Z,100957.84
2022-08-24T19:41:02.560Z,100964.50
2022-08-24T19:44:00.108Z,100956.22
2022-08-24T19:46:27.969Z,100961.41
2022-08-24T19:48:56.248Z,100962.44
2022-08-24T19:51:24.871Z,100965.34
2022-08-24T19:53:53.112Z,100972.38
2022-08-24T19:56:20.865Z,100970.94
2022-08-24T19:58:57.631Z,100978.41
2022-08-24T20:01:34.802Z,100976.53
2022-08-24T20:04:06.206Z,100976.72
2022-08-24T20:06:35.919Z,100980.28
2022-08-24T20:09:04.920Z,100979.84
2022-08-24T20:11:32.664Z,100986.47
2022-08-24T20:14:02.792Z,100985.84
2022-08-24T20:16:44.378Z,100984.22
2022-08-24T20:19:12.489Z,100984.63
2022-08-24T20:21:40.339Z,100988.34
2022-08-24T20:24:08.868Z,100980.84
2022-08-24T20:26:44.245Z,100986.81
2022-08-24T20:29:12.753Z,100983.69
2022-08-24T20:31:41.280Z,100984.31
2022-08-24T20:34:09.087Z,100983.88
2022-08-24T20:36:40.143Z,100985.97
2022-08-24T20:39:10.884Z,100987.34
2022-08-24T20:41:40.615Z,100987.13
2022-08-24T20:44:09.320Z,100984.91
2022-08-24T20:46:38.666Z,100989.72
2022-08-24T20:49:07.810Z,100990.53
2022-08-24T20:51:42.275Z,100987.59
2022-08-24T20:54:11.594Z,100994.44
2022-08-24T20:56:39.345Z,100980.16
2022-08-24T20:59:09.815Z,100991.38
2022-08-24T21:01:38.995Z,100988.66
2022-08-24T21:04:06.974Z,100997.69
2022-08-24T21:06:34.855Z,101000.56
2022-08-24T21:09:04.808Z,100992.66
2022-08-24T21:11:33.402Z,100997.13
2022-08-24T21:14:05.632Z,100994.59
2022-08-24T21:16:36.219Z,101003.34
2022-08-24T21:19:04.371Z,100999.19
2022-08-24T21:21:33.673Z,101000.44
2022-08-24T21:24:01.992Z,101008.13
2022-08-24T21:26:32.469Z,101005.44
2022-08-24T21:29:00.329Z,101006.94
2022-08-24T21:31:28.342Z,101011.22
2022-08-24T21:34:15.376Z,101012.63
2022-08-24T21:36:43.818Z,101009.75
2022-08-24T21:39:11.898Z,101009.63
2022-08-24T21:41:40.770Z,101011.03
2022-08-24T21:44:08.514Z,101011.69
2022-08-24T21:46:39.013Z,101008.13
2022-08-24T21:49:07.877Z,101014.25
2022-08-24T21:51:40.572Z,101009.75
2022-08-24T21:54:09.022Z,101014.88
2022-08-24T21:56:36.656Z,101008.59
2022-08-24T21:59:04.587Z,101008.19
2022-08-24T22:01:32.564Z,101005.91
2022-08-24T22:04:01.476Z,101007.06
2022-08-24T22:06:31.781Z,101007.34
2022-08-24T22:09:00.465Z,101006.06
2022-08-24T22:11:29.614Z,101005.59
2022-08-24T22:13:58.021Z,101005.00
2022-08-24T22:16:26.127Z,101007.13
2022-08-24T22:18:54.091Z,101006.44
2022-08-24T22:21:25.275Z,101001.72
2022-08-24T22:23:52.727Z,100999.22
2022-08-24T22:26:24.153Z,101003.16
2022-08-24T22:28:52.006Z,101001.69
2022-08-24T22:31:24.008Z,101005.50
2022-08-24T22:33:52.049Z,101006.25
2022-08-24T22:36:19.725Z,101000.09
2022-08-24T22:38:48.073Z,100991.00
2022-08-24T22:41:16.764Z,101005.66
2022-08-24T22:44:02.963Z,101000.00
2022-08-24T22:46:30.936Z,101000.22
2022-08-24T22:49:00.547Z,100998.34
2022-08-24T22:51:29.016Z,101006.88
2022-08-24T22:53:57.342Z,101005.66
2022-08-24T22:56:29.613Z,101010.41
2022-08-24T22:58:58.465Z,101010.25
2022-08-24T23:01:42.095Z,101010.84
2022-08-24T23:04:14.521Z,101004.03
2022-08-24T23:06:42.423Z,101005.13
2022-08-24T23:09:11.062Z,101008.84
2022-08-24T23:11:39.422Z,101007.41
2022-08-24T23:14:09.106Z,101001.41
2022-08-24T23:16:39.653Z,101000.38
2022-08-24T23:19:26.820Z,101000.22
2022-08-24T23:21:55.069Z,100999.78
2022-08-24T23:24:23.674Z,100996.13
2022-08-24T23:26:52.039Z,100998.72
2022-08-24T23:29:20.637Z,100999.72
2022-08-24T23:31:48.930Z,100993.13
2022-08-24T23:34:17.029Z,100993.00
2022-08-24T23:36:45.790Z,100992.66
2022-08-24T23:39:13.890Z,100992.94
2022-08-24T23:41:46.120Z,100989.88
2022-08-24T23:44:20.976Z,100996.28
2022-08-24T23:46:49.332Z,100995.69
2022-08-24T23:49:19.750Z,100997.16
2022-08-24T23:51:49.016Z,100991.44
2022-08-24T23:54:18.486Z,100987.19
2022-08-24T23:56:49.189Z,100985.53
2022-08-24T23:59:21.734Z,100985.34
